Time;durP1;ratioP1;P1;durP2;ratioP2;P2;SDS_P1;SDS_P2;PMS_P1;PMS_P2;Temp;Humidity;BMP_temperature;BMP_pressure;BME280_temperature;BME280_humidity;BME280_pressure;Samples;Min_cycle;Max_cycle;Signal;HPM_P1;HPM_P2
2022/06/13 00:00:21;;;;;;;4.32;1.73;;;24.80;39.10;;;;;;5113975;28;20016;-41
2022/06/13 00:02:47;;;;;;;4.65;2.22;;;24.80;39.10;;;;;;5115275;28;20020;-41
2022/06/13 00:05:13;;;;;;;5.70;2.05;;;24.80;39.10;;;;;;5114912;28;20390;-41
2022/06/13 00:07:39;;;;;;;3.67;2.13;;;24.80;39.20;;;;;;5097059;28;20019;-42
2022/06/13 00:10:06;;;;;;;4.97;1.90;;;24.80;39.20;;;;;;5114960;28;20474;-42
2022/06/13 00:12:31;;;;;;;3.72;2.13;;;24.80;39.20;;;;;;5114849;28;20016;-41
2022/06/13 00:14:57;;;;;;;4.13;1.90;;;24.80;39.30;;;;;;5113048;28;20050;-41
2022/06/13 00:17:23;;;;;;;7.20;2.10;;;24.80;39.30;;;;;;5114269;28;20016;-40
2022/06/13 00:19:49;;;;;;;6.25;1.90;;;24.80;39.40;;;;;;5114320;28;20035;-42
2022/06/13 00:22:15;;;;;;;6.03;2.30;;;24.80;39.50;;;;;;5112809;28;20063;-41
2022/06/13 00:24:41;;;;;;;4.25;1.88;;;24.80;39.50;;;;;;5114595;28;20038;-41
2022/06/13 00:27:06;;;;;;;5.03;2.00;;;24.80;39.50;;;;;;5115167;28;20526;-41
2022/06/13 00:29:33;;;;;;;4.45;2.08;;;24.80;39.50;;;;;;5116108;28;20431;-41
2022/06/13 00:31:58;;;;;;;4.38;1.98;;;24.80;39.50;;;;;;5115284;28;20030;-41
2022/06/13 00:34:25;;;;;;;3.95;2.08;;;24.80;39.50;;;;;;5114063;28;20027;-41
2022/06/13 00:36:50;;;;;;;4.72;1.92;;;24.80;39.60;;;;;;5114414;28;20034;-40
2022/06/13 00:39:16;;;;;;;3.33;1.92;;;24.80;39.60;;;;;;5113456;28;20012;-40
2022/06/13 00:41:42;;;;;;;3.97;2.00;;;24.80;39.70;;;;;;5113181;28;20026;-40
2022/06/13 00:44:21;;;;;;;3.80;2.10;;;24.70;39.70;;;;;;5114234;28;20035;-41
2022/06/13 00:46:47;;;;;;;4.60;2.13;;;24.70;39.70;;;;;;5114283;28;20023;-40
2022/06/13 00:49:15;;;;;;;4.53;2.05;;;24.70;39.70;;;;;;5112894;28;20303;-41
2022/06/13 00:51:50;;;;;;;4.65;2.10;;;24.70;39.70;;;;;;5112726;28;20470;-44
2022/06/13 00:54:17;;;;;;;4.30;2.03;;;24.70;39.80;;;;;;5112933;28;20474;-41
2022/06/13 00:56:43;;;;;;;6.55;2.28;;;24.80;39.90;;;;;;5117040;28;20141;-42
2022/06/13 00:59:13;;;;;;;4.25;1.90;;;24.70;39.80;;;;;;5118448;28;20043;-42
2022/06/13 01:01:39;;;;;;;5.60;2.08;;;24.70;39.90;;;;;;5100370;28;20018;-43
2022/06/13 01:04:05;;;;;;;6.07;2.20;;;24.70;39.90;;;;;;5117320;28;20429;-43
2022/06/13 01:06:33;;;;;;;5.00;2.20;;;24.70;39.90;;;;;;5117286;28;20026;-43
2022/06/13 01:09:01;;;;;;;3.55;1.90;;;24.70;40.00;;;;;;5116823;28;20061;-41
2022/06/13 01:11:27;;;;;;;3.90;2.10;;;24.70;40.00;;;;;;5117639;28;20492;-42
2022/06/13 01:14:12;;;;;;;4.55;2.13;;;24.70;40.00;;;;;;5118201;28;20016;-43
2022/06/13 01:17:12;;;;;;;5.07;2.10;;;24.70;40.00;;;;;;5117467;28;20016;-45
2022/06/13 01:20:12;;;;;;;4.80;2.10;;;24.70;40.10;;;;;;5118793;28;20016;-42
2022/06/13 01:23:07;;;;;;;4.80;1.70;;;24.70;40.10;;;;;;5116072;28;20040;-42
2022/06/13 01:25:39;;;;;;;4.40;2.17;;;24.70;40.10;;;;;;5118411;28;20019;-47
2022/06/13 01:28:28;;;;;;;3.90;2.10;;;24.70;40.20;;;;;;5120392;27;20015;-41
2022/06/13 01:31:02;;;;;;;5.32;2.22;;;24.70;40.20;;;;;;5119760;28;20031;-43
2022/06/13 01:33:55;;;;;;;5.70;2.15;;;24.60;40.20;;;;;;5118947;28;20031;-42
2022/06/13 01:36:49;;;;;;;3.63;2.10;;;24.70;40.30;;;;;;5119381;28;20027;-40
2022/06/13 01:39:32;;;;;;;5.07;2.05;;;24.60;40.30;;;;;;5103878;28;20035;-41
2022/06/13 01:42:04;;;;;;;6.90;2.60;;;24.60;40.30;;;;;;5123988;27;20016;-47
2022/06/13 01:44:39;;;;;;;5.63;1.95;;;24.70;40.40;;;;;;5125389;28;20058;-45
2022/06/13 01:47:10;;;;;;;5.22;2.30;;;24.60;40.40;;;;;;5124968;28;20050;-47
2022/06/13 01:50:02;;;;;;;5.60;2.10;;;24.60;40.40;;;;;;5105709;28;20011;-44
2022/06/13 01:53:02;;;;;;;5.05;2.20;;;24.60;40.50;;;;;;5123672;28;20026;-45
2022/06/13 01:55:34;;;;;;;5.22;2.00;;;24.60;40.50;;;;;;5122458;28;20023;-41
2022/06/13 01:58:10;;;;;;;4.30;1.98;;;24.60;40.60;;;;;;5119742;28;20024;-43
2022/06/13 02:00:36;;;;;;;5.30;2.10;;;24.60;40.60;;;;;;5121213;28;20008;-49
2022/06/13 02:03:26;;;;;;;4.35;2.10;;;24.60;40.60;;;;;;5119769;28;20080;-42
2022/06/13 02:06:15;;;;;;;;;;;24.60;40.70;;;;;;5120477;28;20051;-42
2022/06/13 02:08:44;;;;;;;4.70;2.00;;;24.60;40.70;;;;;;5109792;28;19904;-42
2022/06/13 02:11:19;;;;;;;6.03;2.33;;;24.60;40.70;;;;;;5103286;28;20004;-42
2022/06/13 02:14:20;;;;;;;4.72;2.17;;;24.60;40.80;;;;;;5120334;28;20024;-44
2022/06/13 02:16:51;;;;;;;4.78;1.98;;;24.60;40.90;;;;;;5076973;28;20485;-40
2022/06/13 02:19:19;;;;;;;5.38;2.00;;;24.60;40.90;;;;;;5116458;28;20011;-41
2022/06/13 02:22:27;;;;;;;4.40;1.98;;;24.60;40.90;;;;;;5117435;28;20095;-39
2022/06/13 02:25:18;;;;;;;5.03;2.03;;;24.50;40.90;;;;;;5117622;28;20048;-40
2022/06/13 02:27:47;;;;;;;3.35;1.90;;;24.60;41.00;;;;;;5116480;28;20008;-40
2022/06/13 02:30:15;;;;;;;4.47;2.15;;;24.50;41.00;;;;;;5098999;28;20020;-39
2022/06/13 02:32:46;;;;;;;5.20;2.10;;;24.60;41.10;;;;;;5117825;28;20074;-42
2022/06/13 02:35:16;;;;;;;4.93;2.42;;;24.60;41.10;;;;;;5117585;28;20020;-42
2022/06/13 02:37:49;;;;;;;5.80;2.42;;;24.50;41.10;;;;;;5100570;28;20016;-40
2022/06/13 02:40:24;;;;;;;4.93;2.00;;;24.50;41.20;;;;;;5116222;28;20004;-41
2022/06/13 02:43:13;;;;;;;7.10;2.13;;;24.50;41.20;;;;;;5099102;28;20531;-40
2022/06/13 02:45:48;;;;;;;5.95;2.53;;;24.50;41.20;;;;;;5100684;28;20008;-40
2022/06/13 02:48:16;;;;;;;7.75;2.17;;;24.50;41.20;;;;;;5117357;28;20079;-41
2022/06/13 02:51:11;;;;;;;3.53;1.88;;;24.50;41.40;;;;;;5117803;28;20022;-42
2022/06/13 02:54:05;;;;;;;4.90;2.10;;;24.50;41.40;;;;;;5104455;28;20046;-40
2022/06/13 02:59:57;;;;;;;5.72;2.10;;;24.50;41.40;;;;;;5119580;28;20080;-40
2022/06/13 03:02:28;;;;;;;4.22;1.95;;;24.50;41.50;;;;;;5117870;28;20023;-39
2022/06/13 03:05:09;;;;;;;5.15;2.20;;;24.50;41.60;;;;;;5116012;28;20015;-40
2022/06/13 03:07:37;;;;;;;4.88;1.90;;;24.50;41.60;;;;;;5114438;28;20027;-40
2022/06/13 03:10:12;;;;;;;4.85;2.10;;;24.50;41.60;;;;;;5097187;28;20008;-40
2022/06/13 03:13:04;;;;;;;4.82;1.90;;;24.50;41.60;;;;;;5115057;27;20046;-40
2022/06/13 03:15:35;;;;;;;7.45;2.47;;;24.40;41.60;;;;;;5114981;28;20052;-40
2022/06/13 03:18:11;;;;;;;4.28;2.10;;;24.50;41.70;;;;;;5115006;28;20015;-40
2022/06/13 03:20:56;;;;;;;5.85;2.22;;;24.50;41.70;;;;;;5115167;28;20010;-41
2022/06/13 03:23:47;;;;;;;6.15;2.58;;;24.40;41.70;;;;;;5113830;28;20027;-40
2022/06/13 03:26:18;;;;;;;4.97;2.25;;;24.50;41.80;;;;;;5115349;28;20042;-41
2022/06/13 03:29:00;;;;;;;5.63;2.10;;;24.40;41.80;;;;;;5097786;28;20016;-40
2022/06/13 03:31:34;;;;;;;5.50;2.20;;;24.50;42.40;;;;;;5113904;28;20019;-40
2022/06/13 03:34:05;;;;;;;6.53;2.22;;;24.40;41.90;;;;;;5097221;28;20081;-40
2022/06/13 03:36:35;;;;;;;4.90;2.20;;;24.50;41.90;;;;;;5113728;28;20012;-40
2022/06/13 03:39:34;;;;;;;5.75;2.42;;;24.50;41.90;;;;;;5114812;28;20022;-40
2022/06/13 03:42:06;;;;;;;;;;;24.40;42.00;;;;;;5015950;28;20117;-39
2022/06/13 03:44:38;;;;;;;5.00;2.05;;;24.50;42.00;;;;;;5032555;28;19955;-39
2022/06/13 03:47:12;;;;;;;5.15;2.33;;;24.40;42.00;;;;;;5000103;28;20503;-39
2022/06/13 03:49:54;;;;;;;4.90;2.00;;;24.40;42.00;;;;;;5032460;28;20048;-40
2022/06/13 03:52:20;;;;;;;6.47;2.30;;;24.40;42.00;;;;;;5016350;28;20041;-40
2022/06/13 03:54:50;;;;;;;6.15;2.30;;;24.40;42.10;;;;;;5031960;28;20022;-39
2022/06/13 03:57:24;;;;;;;5.55;2.88;;;24.40;42.10;;;;;;5015132;28;20575;-39
2022/06/13 04:00:00;;;;;;;5.72;2.22;;;24.40;42.10;;;;;;5015331;28;20025;-39
2022/06/13 04:02:28;;;;;;;5.25;2.20;;;24.40;42.20;;;;;;4999841;28;20424;-38
2022/06/13 04:04:54;;;;;;;6.43;2.45;;;24.40;42.20;;;;;;5032148;28;20044;-38
2022/06/13 04:07:20;;;;;;;5.82;2.20;;;24.40;42.10;;;;;;5031768;28;20500;-39
2022/06/13 04:09:48;;;;;;;6.88;2.70;;;24.40;42.10;;;;;;5031966;28;20021;-39
2022/06/13 04:12:37;;;;;;;4.28;2.03;;;24.40;42.10;;;;;;5031590;28;20101;-39
2022/06/13 04:15:12;;;;;;;7.17;2.80;;;24.40;42.10;;;;;;5031412;28;20049;-38
2022/06/13 04:18:05;;;;;;;5.95;2.42;;;24.40;42.10;;;;;;5075595;28;20058;-42
2022/06/13 04:20:41;;;;;;;6.95;2.70;;;24.50;42.10;;;;;;5114214;28;20012;-38
2022/06/13 04:23:18;;;;;;;5.88;2.45;;;24.50;42.00;;;;;;5112571;28;20032;-39
2022/06/13 04:25:50;;;;;;;6.65;2.80;;;24.60;42.00;;;;;;5114341;28;20023;-38
2022/06/13 04:28:36;;;;;;;5.75;2.40;;;24.60;42.00;;;;;;5113831;28;20027;-38
2022/06/13 04:31:02;;;;;;;6.10;2.30;;;24.60;42.00;;;;;;5113211;28;20103;-38
2022/06/13 04:33:34;;;;;;;4.93;2.35;;;24.60;42.00;;;;;;5112829;28;20047;-38
2022/06/13 04:35:59;;;;;;;6.75;2.33;;;24.60;41.90;;;;;;5112576;28;20019;-39
2022/06/13 04:38:25;;;;;;;4.50;2.00;;;24.70;41.90;;;;;;5113827;28;20091;-38
2022/06/13 04:40:57;;;;;;;6.03;2.30;;;24.70;41.80;;;;;;5113677;28;20023;-38
2022/06/13 04:43:26;;;;;;;4.82;2.03;;;24.80;41.70;;;;;;5113858;28;20039;-39
2022/06/13 04:46:12;;;;;;;5.25;2.30;;;24.80;41.60;;;;;;5096314;28;20047;-40
2022/06/13 04:48:42;;;;;;;3.75;2.17;;;24.80;42.10;;;;;;5114441;28;20040;-38
2022/06/13 04:51:11;;;;;;;5.15;2.13;;;24.80;42.10;;;;;;5113107;28;20019;-38
2022/06/13 04:53:43;;;;;;;4.88;1.90;;;24.80;41.60;;;;;;5095933;28;20099;-38
2022/06/13 04:56:09;;;;;;;3.90;1.98;;;24.80;41.70;;;;;;5114145;28;20026;-41
2022/06/13 04:58:39;;;;;;;4.40;1.95;;;24.80;41.70;;;;;;5114529;28;20378;-40
2022/06/13 05:01:25;;;;;;;;;;;24.80;41.70;;;;;;5114564;28;20020;-39
2022/06/13 05:03:50;;;;;;;4.25;2.08;;;24.80;41.70;;;;;;5114525;28;19900;-39
2022/06/13 05:06:31;;;;;;;4.90;1.70;;;24.80;41.60;;;;;;5114665;28;20040;-39
2022/06/13 05:09:09;;;;;;;4.05;1.88;;;24.80;41.70;;;;;;5115593;28;20019;-41
2022/06/13 05:11:39;;;;;;;4.65;2.10;;;24.80;41.60;;;;;;5113740;28;20016;-38
2022/06/13 05:14:10;;;;;;;5.85;2.20;;;24.80;42.10;;;;;;5114471;28;20077;-38
2022/06/13 05:17:28;;;;;;;5.85;2.10;;;24.90;41.50;;;;;;5113438;28;20683;-39
2022/06/13 05:20:30;;;;;;;4.30;2.20;;;25.00;41.40;;;;;;5041558;28;20071;-39
2022/06/13 05:23:14;;;;;;;5.35;1.95;;;25.20;41.00;;;;;;5083181;28;20062;-40
2022/06/13 05:25:43;;;;;;;5.22;2.25;;;25.40;40.70;;;;;;5115373;28;20051;-38
2022/06/13 05:28:09;;;;;;;5.03;2.47;;;25.60;40.30;;;;;;5114609;28;20024;-39
2022/06/13 05:30:36;;;;;;;6.53;2.47;;;25.80;40.00;;;;;;5114268;28;20493;-39
2022/06/13 05:33:01;;;;;;;5.65;2.30;;;26.00;39.70;;;;;;5113084;28;20020;-44
2022/06/13 05:35:28;;;;;;;5.10;2.28;;;26.20;39.30;;;;;;5112774;28;20490;-39
2022/06/13 05:37:54;;;;;;;4.80;2.03;;;26.30;39.10;;;;;;5096206;28;20019;-43
2022/06/13 05:40:21;;;;;;;3.83;2.03;;;26.40;38.80;;;;;;5114720;28;20016;-43
2022/06/13 05:42:47;;;;;;;5.75;2.28;;;26.60;38.60;;;;;;5120246;28;20031;-40
2022/06/13 05:45:14;;;;;;;7.22;2.30;;;26.70;38.40;;;;;;5119081;28;20020;-41
2022/06/13 05:47:41;;;;;;;4.40;2.13;;;26.90;38.20;;;;;;5121028;28;20102;-42
2022/06/13 05:50:16;;;;;;;4.88;2.22;;;27.00;38.00;;;;;;5121715;28;20019;-40
2022/06/13 05:52:42;;;;;;;5.28;2.00;;;27.10;37.70;;;;;;5119008;28;20046;-40
2022/06/13 05:55:10;;;;;;;5.20;2.30;;;27.20;37.50;;;;;;5121446;28;20031;-40
2022/06/13 05:57:38;;;;;;;5.57;2.00;;;27.40;37.40;;;;;;5121183;28;20011;-42
2022/06/13 06:00:04;;;;;;;6.07;2.58;;;27.40;37.20;;;;;;5119006;28;20133;-41
2022/06/13 06:02:31;;;;;;;5.30;2.00;;;27.60;37.00;;;;;;5118380;28;20039;-42
2022/06/13 06:04:56;;;;;;;4.63;1.98;;;27.70;36.80;;;;;;5100219;28;20096;-41
2022/06/13 06:07:25;;;;;;;4.50;1.90;;;27.80;36.70;;;;;;5117271;28;20023;-41
2022/06/13 06:09:51;;;;;;;6.25;2.10;;;27.90;36.60;;;;;;5118099;28;20015;-41
2022/06/13 06:12:16;;;;;;;4.40;2.00;;;28.00;36.40;;;;;;5115632;28;20020;-43
2022/06/13 06:14:43;;;;;;;4.72;2.17;;;27.90;36.20;;;;;;5117109;28;20024;-40
2022/06/13 06:17:09;;;;;;;5.82;2.10;;;27.90;36.30;;;;;;5116650;28;20049;-40
2022/06/13 06:19:35;;;;;;;4.93;1.88;;;27.80;36.50;;;;;;5114001;28;20039;-39
2022/06/13 06:22:01;;;;;;;5.60;2.10;;;27.70;36.60;;;;;;5095075;28;20031;-40
2022/06/13 06:24:27;;;;;;;5.03;2.42;;;27.60;36.80;;;;;;5114051;28;20031;-40
2022/06/13 06:26:52;;;;;;;6.60;2.40;;;27.60;36.80;;;;;;5116770;28;20106;-40
2022/06/13 06:29:18;;;;;;;6.03;2.03;;;27.70;36.80;;;;;;5116003;28;20103;-42
2022/06/13 06:31:44;;;;;;;6.32;2.38;;;27.80;36.70;;;;;;5115388;28;20264;-39
2022/06/13 06:34:10;;;;;;;4.65;1.98;;;27.80;36.60;;;;;;5117012;28;20024;-43
2022/06/13 06:36:36;;;;;;;7.95;2.13;;;27.80;36.70;;;;;;5117227;28;20042;-40
2022/06/13 06:39:01;;;;;;;8.77;2.20;;;27.80;36.50;;;;;;5115720;28;20030;-40
2022/06/13 06:41:27;;;;;;;5.10;1.80;;;27.90;36.40;;;;;;5098079;28;20031;-43
2022/06/13 06:43:53;;;;;;;5.63;1.90;;;27.90;36.50;;;;;;5098122;28;20019;-40
2022/06/13 06:46:19;;;;;;;6.03;2.08;;;27.80;36.40;;;;;;5117977;28;20095;-44
2022/06/13 06:48:44;;;;;;;7.53;2.20;;;27.90;36.70;;;;;;5116362;28;20374;-39
2022/06/13 06:51:12;;;;;;;6.40;1.75;;;27.90;36.40;;;;;;5098705;28;20418;-39
2022/06/13 07:01:53;;;;;;;5.70;2.17;;;28.70;35.30;;;;;;5115595;28;20429;-40
2022/06/13 07:04:19;;;;;;;6.28;1.83;;;28.80;34.90;;;;;;5114627;28;20012;-40
2022/06/13 07:06:45;;;;;;;7.80;1.75;;;29.00;34.80;;;;;;5115786;28;20465;-38
2022/06/13 07:09:13;;;;;;;4.90;1.80;;;29.10;34.60;;;;;;5116885;28;20091;-49
2022/06/13 07:11:54;;;;;;;8.52;2.00;;;29.20;34.40;;;;;;5098583;28;20091;-44
2022/06/13 07:14:31;;;;;;;6.30;1.98;;;29.30;34.40;;;;;;5116658;28;20008;-39
2022/06/13 07:16:57;;;;;;;5.72;2.00;;;29.40;34.30;;;;;;5099513;28;20064;-39
2022/06/13 07:19:23;;;;;;;7.63;2.00;;;29.40;34.10;;;;;;5116271;28;20062;-39
2022/06/13 07:21:49;;;;;;;6.00;1.80;;;29.50;34.00;;;;;;5114849;28;20024;-43
2022/06/13 07:24:14;;;;;;;4.30;1.73;;;29.60;33.80;;;;;;5098578;28;20119;-39
2022/06/13 07:26:40;;;;;;;5.80;1.63;;;29.60;33.80;;;;;;5117377;28;20095;-39
2022/06/13 07:29:07;;;;;;;8.85;1.70;;;29.50;33.60;;;;;;5115648;28;20016;-39
2022/06/13 07:31:45;;;;;;;4.15;1.38;;;29.60;33.90;;;;;;5118856;28;20091;-39
2022/06/13 07:34:21;;;;;;;8.05;2.13;;;29.60;33.70;;;;;;5100671;28;20015;-38
2022/06/13 07:36:48;;;;;;;7.13;1.85;;;29.60;33.60;;;;;;5116872;28;20016;-37
2022/06/13 07:39:14;;;;;;;6.60;2.05;;;29.80;33.50;;;;;;5118916;28;20090;-39
2022/06/13 07:41:41;;;;;;;4.68;1.60;;;29.80;33.30;;;;;;5118271;28;20426;-39
2022/06/13 07:44:07;;;;;;;4.05;1.52;;;29.90;33.80;;;;;;5116695;28;20000;-45
2022/06/13 07:46:33;;;;;;;6.30;1.83;;;29.90;33.10;;;;;;5115914;28;20052;-42
2022/06/13 07:49:00;;;;;;;6.05;1.67;;;30.00;33.10;;;;;;5117909;28;20032;-41
2022/06/13 07:51:26;;;;;;;7.35;1.60;;;30.10;32.90;;;;;;5116701;28;20010;-44
2022/06/13 07:53:51;;;;;;;6.55;2.03;;;30.20;32.80;;;;;;5114873;28;20019;-43
2022/06/13 07:56:20;;;;;;;4.50;1.60;;;30.20;32.60;;;;;;5098392;28;20047;-42
2022/06/13 07:58:47;;;;;;;;;;;30.10;32.60;;;;;;5116756;28;20020;-40
2022/06/13 08:01:13;;;;;;;4.30;1.42;;;30.10;32.70;;;;;;5115921;28;20028;-40
2022/06/13 08:03:39;;;;;;;3.75;1.67;;;30.10;32.60;;;;;;5114823;28;20059;-42
2022/06/13 08:06:05;;;;;;;5.00;1.60;;;30.20;32.60;;;;;;5114542;28;20099;-42
2022/06/13 08:08:35;;;;;;;5.13;1.50;;;30.10;32.40;;;;;;5114370;28;20023;-43
2022/06/13 08:11:03;;;;;;;4.60;1.58;;;30.00;32.50;;;;;;5112838;28;20023;-42
2022/06/13 08:13:29;;;;;;;5.53;1.75;;;29.90;32.60;;;;;;5113957;28;20030;-45
2022/06/13 08:15:55;;;;;;;4.30;1.58;;;29.90;32.60;;;;;;5112872;28;20132;-44
2022/06/13 08:18:21;;;;;;;5.97;1.55;;;29.80;32.80;;;;;;5096303;28;20024;-44
2022/06/13 08:20:50;;;;;;;4.25;1.60;;;29.60;32.70;;;;;;5116570;28;20077;-44
2022/06/13 08:23:16;;;;;;;5.47;1.90;;;29.50;33.00;;;;;;5116928;28;20054;-49
2022/06/13 08:25:45;;;;;;;8.05;1.60;;;29.40;33.20;;;;;;5098059;28;20181;-43
2022/06/13 08:28:11;;;;;;;8.60;1.50;;;29.30;33.20;;;;;;5098643;28;20020;-41
2022/06/13 08:30:49;;;;;;;6.80;1.75;;;29.10;33.40;;;;;;5116748;28;20019;-48
2022/06/13 08:33:15;;;;;;;8.85;1.88;;;29.10;33.60;;;;;;5118039;28;20098;-44
2022/06/13 08:35:41;;;;;;;5.38;1.45;;;29.20;33.50;;;;;;5115535;28;20032;-42
2022/06/13 08:38:07;;;;;;;6.70;1.52;;;29.30;33.10;;;;;;5114029;28;20450;-42
2022/06/13 08:41:01;;;;;;;6.93;1.70;;;29.40;32.90;;;;;;5114245;28;20012;-45
2022/06/13 08:43:44;;;;;;;4.55;1.30;;;29.30;32.70;;;;;;5113380;28;20039;-42
2022/06/13 08:46:40;;;;;;;5.45;1.30;;;29.40;32.90;;;;;;5114098;28;20046;-41
2022/06/13 08:49:15;;;;;;;5.65;1.23;;;29.40;32.70;;;;;;5113374;28;20023;-43
2022/06/13 08:51:48;;;;;;;5.05;1.20;;;29.30;32.60;;;;;;5097424;28;20012;-44
2022/06/13 08:54:20;;;;;;;4.50;1.60;;;29.20;32.70;;;;;;5114663;28;20016;-43
2022/06/13 08:56:46;;;;;;;4.75;1.48;;;29.00;32.90;;;;;;5113333;28;20014;-45
2022/06/13 08:59:22;;;;;;;4.53;1.20;;;28.90;33.10;;;;;;5097411;28;20016;-41
2022/06/13 09:02:08;;;;;;;6.47;1.60;;;28.80;33.20;;;;;;5117184;28;20061;-39
2022/06/13 09:04:54;;;;;;;7.65;1.73;;;28.70;33.20;;;;;;5114978;28;20110;-39
2022/06/13 09:07:46;;;;;;;4.85;1.60;;;28.60;33.30;;;;;;5116122;28;20038;-45
2022/06/13 09:10:37;;;;;;;5.30;1.58;;;28.70;33.30;;;;;;5111996;28;20028;-42
2022/06/13 09:13:16;;;;;;;4.82;1.20;;;28.80;33.00;;;;;;5101888;28;20016;-45
2022/06/13 09:15:51;;;;;;;3.38;1.15;;;29.00;32.70;;;;;;5115320;28;20474;-41
2022/06/13 09:18:20;;;;;;;5.43;1.60;;;29.00;32.50;;;;;;5102835;28;20484;-40
2022/06/13 09:20:53;;;;;;;3.42;1.20;;;29.00;32.50;;;;;;5120633;28;20087;-44
2022/06/13 09:23:39;;;;;;;3.28;1.20;;;28.90;32.50;;;;;;5120410;28;20043;-41
2022/06/13 09:26:16;;;;;;;3.75;1.42;;;28.80;32.50;;;;;;5118763;28;20011;-40
2022/06/13 09:29:11;;;;;;;4.82;1.23;;;28.80;32.70;;;;;;5118709;28;20047;-40
2022/06/13 09:31:50;;;;;;;4.03;1.20;;;28.70;32.70;;;;;;5118523;28;20015;-39
2022/06/13 09:34:27;;;;;;;3.30;1.30;;;28.60;32.70;;;;;;5119750;28;20015;-39
2022/06/13 09:37:05;;;;;;;4.22;1.25;;;28.60;32.80;;;;;;5120427;28;20027;-41
2022/06/13 09:39:30;;;;;;;4.85;1.50;;;28.60;32.70;;;;;;5120012;28;20084;-46
2022/06/13 09:42:00;;;;;;;7.03;1.20;;;28.70;32.60;;;;;;5119029;28;20016;-47
2022/06/13 09:44:39;;;;;;;4.55;1.40;;;28.80;32.40;;;;;;5120326;27;20036;-42
2022/06/13 09:47:34;;;;;;;5.57;1.20;;;28.80;32.20;;;;;;5119137;28;20080;-40
2022/06/13 09:50:14;;;;;;;3.42;1.13;;;28.80;32.20;;;;;;5084628;28;20060;-41
2022/06/13 09:52:46;;;;;;;4.82;1.20;;;28.70;32.80;;;;;;5118891;28;20454;-44
2022/06/13 09:55:30;;;;;;;4.20;1.20;;;28.50;32.40;;;;;;5119692;28;20072;-40
2022/06/13 09:58:17;;;;;;;4.78;1.00;;;28.40;32.50;;;;;;5118402;28;20012;-40
2022/06/13 10:00:58;;;;;;;3.00;1.10;;;28.30;32.50;;;;;;5117772;28;20015;-44
2022/06/13 10:03:31;;;;;;;5.93;1.23;;;28.30;32.70;;;;;;5119788;28;20039;-44
2022/06/13 10:06:38;;;;;;;2.08;0.90;;;28.30;32.60;;;;;;5119021;28;20462;-40
2022/06/13 10:09:31;;;;;;;4.10;1.30;;;28.50;32.60;;;;;;5038461;28;20114;-40
2022/06/13 10:12:18;;;;;;;4.05;1.27;;;28.40;32.30;;;;;;5020520;28;20029;-44
2022/06/13 10:14:53;;;;;;;4.30;1.10;;;28.30;32.40;;;;;;5037499;28;20099;-45
2022/06/13 10:17:37;;;;;;;2.63;0.98;;;28.30;32.50;;;;;;5037264;28;20017;-52
2022/06/13 10:20:13;;;;;;;3.70;0.90;;;28.30;32.50;;;;;;5037466;28;20492;-41
2022/06/13 10:22:53;;;;;;;4.95;1.10;;;28.30;32.60;;;;;;5036930;28;20037;-40
2022/06/13 10:25:25;;;;;;;3.17;1.00;;;28.20;32.40;;;;;;5037917;28;20021;-39
2022/06/13 10:28:05;;;;;;;6.07;1.15;;;28.20;32.50;;;;;;5021103;28;20028;-40
2022/06/13 10:30:44;;;;;;;3.63;1.05;;;28.20;32.80;;;;;;5037970;28;20124;-48
2022/06/13 10:33:30;;;;;;;9.68;1.38;;;28.20;32.70;;;;;;5038445;28;20026;-44
2022/06/13 10:35:59;;;;;;;5.28;1.05;;;28.20;32.50;;;;;;5038362;28;20102;-41
2022/06/13 10:38:47;;;;;;;;;;;28.30;32.60;;;;;;5038354;28;20097;-42
2022/06/13 10:41:13;;;;;;;6.03;1.10;;;28.40;32.50;;;;;;5021227;28;19944;-45
2022/06/13 10:43:40;;;;;;;7.65;1.15;;;28.40;32.40;;;;;;5097619;28;20039;-40
2022/06/13 10:46:07;;;;;;;5.65;1.10;;;28.40;32.30;;;;;;5118804;28;20047;-41
2022/06/13 10:48:55;;;;;;;6.30;1.15;;;28.40;32.30;;;;;;5120228;28;20019;-40
2022/06/13 10:51:22;;;;;;;4.60;1.00;;;28.50;32.30;;;;;;5122450;28;20090;-54
2022/06/13 10:53:50;;;;;;;4.22;0.98;;;28.40;32.30;;;;;;5124528;28;20072;-44
2022/06/13 10:56:36;;;;;;;4.63;1.05;;;28.30;32.40;;;;;;5122963;28;20023;-49
2022/06/13 10:59:02;;;;;;;2.30;0.90;;;28.20;32.60;;;;;;5121429;28;20012;-48
2022/06/13 11:01:30;;;;;;;5.90;1.20;;;28.10;32.70;;;;;;5120881;28;20039;-50
2022/06/13 11:04:16;;;;;;;4.85;1.05;;;28.10;32.80;;;;;;5120822;28;20047;-42
2022/06/13 11:06:44;;;;;;;5.15;1.00;;;28.10;32.90;;;;;;5122470;28;20035;-50
2022/06/13 11:09:34;;;;;;;7.38;1.35;;;28.00;32.90;;;;;;5121251;28;20030;-49
2022/06/13 11:12:02;;;;;;;3.42;0.85;;;28.00;33.00;;;;;;5118714;28;20068;-39
2022/06/13 11:14:32;;;;;;;4.18;1.13;;;28.00;33.00;;;;;;5118691;28;20015;-38
2022/06/13 11:22:40;;;;;;;4.18;1.13;;;27.90;33.00;;;;;;5119991;28;20067;-40
2022/06/13 11:25:20;;;;;;;6.15;1.10;;;27.90;33.10;;;;;;5119237;28;20073;-38
2022/06/13 11:27:49;;;;;;;6.68;1.15;;;27.90;33.00;;;;;;5117853;28;20016;-40
2022/06/13 11:30:19;;;;;;;5.25;1.55;;;27.90;33.10;;;;;;5085462;28;20023;-38
2022/06/13 11:33:13;;;;;;;5.95;1.30;;;27.90;33.10;;;;;;5119230;28;20014;-40
2022/06/13 11:35:54;;;;;;;3.15;0.77;;;27.80;33.10;;;;;;5118211;28;20015;-42
2022/06/13 11:38:27;;;;;;;6.07;1.02;;;27.80;33.10;;;;;;5116589;28;20019;-41
2022/06/13 11:41:08;;;;;;;5.28;1.10;;;27.70;33.10;;;;;;5118992;28;20099;-44
2022/06/13 11:43:43;;;;;;;5.07;1.05;;;27.70;33.20;;;;;;5118887;28;20011;-41
2022/06/13 11:46:48;;;;;;;7.05;1.30;;;27.70;33.30;;;;;;5121108;28;20054;-45
2022/06/13 11:49:16;;;;;;;5.05;1.02;;;27.60;33.30;;;;;;5120059;28;20436;-42
2022/06/13 11:51:53;;;;;;;4.10;1.13;;;27.60;33.30;;;;;;5118092;28;20020;-48
2022/06/13 11:54:28;;;;;;;3.58;1.08;;;27.60;33.40;;;;;;5118599;28;20529;-48
2022/06/13 11:57:12;;;;;;;6.10;1.35;;;27.50;33.40;;;;;;5119514;28;20026;-46
2022/06/13 12:00:06;;;;;;;3.85;0.90;;;27.50;33.40;;;;;;5118826;28;20094;-42
2022/06/13 12:02:50;;;;;;;4.80;1.00;;;27.50;33.40;;;;;;5119450;28;20115;-42
2022/06/13 12:05:22;;;;;;;4.03;1.10;;;27.50;33.40;;;;;;5118369;28;20012;-47
2022/06/13 12:07:54;;;;;;;4.28;1.17;;;27.40;33.40;;;;;;5119437;28;20015;-48
2022/06/13 12:10:22;;;;;;;5.65;1.55;;;27.40;33.40;;;;;;5119305;28;20018;-44
2022/06/13 12:12:50;;;;;;;5.03;1.30;;;27.40;33.50;;;;;;5119256;28;20030;-48
2022/06/13 12:15:16;;;;;;;6.03;1.23;;;27.30;33.40;;;;;;5119121;28;20012;-46
2022/06/13 12:18:05;;;;;;;4.55;0.95;;;27.30;33.50;;;;;;5117720;28;20367;-44
2022/06/13 12:20:46;;;;;;;5.80;1.05;;;27.30;33.50;;;;;;5117747;28;20027;-45
2022/06/13 12:23:18;;;;;;;4.38;1.02;;;27.30;33.50;;;;;;5118319;28;20062;-45
2022/06/13 12:25:56;;;;;;;2.95;0.85;;;27.30;33.60;;;;;;5100873;28;20030;-45
2022/06/13 12:28:25;;;;;;;5.38;1.45;;;27.20;33.60;;;;;;5101557;28;20496;-50
2022/06/13 12:31:02;;;;;;;2.47;0.70;;;27.20;33.60;;;;;;5100527;28;20083;-43
2022/06/13 12:34:04;;;;;;;5.20;1.10;;;27.20;33.60;;;;;;5117198;28;20032;-42
2022/06/13 12:36:55;;;;;;;3.90;0.80;;;27.10;33.60;;;;;;5117793;28;20009;-42
2022/06/13 12:39:29;;;;;;;3.25;0.80;;;27.10;33.60;;;;;;5117206;28;20031;-43
2022/06/13 12:42:18;;;;;;;4.43;0.90;;;27.10;33.70;;;;;;5118721;28;20474;-44
2022/06/13 12:45:12;;;;;;;5.10;0.90;;;27.10;33.70;;;;;;5118395;28;20019;-46
2022/06/13 12:47:45;;;;;;;3.90;0.80;;;27.10;33.70;;;;;;5119611;28;20024;-41
2022/06/13 12:50:33;;;;;;;4.30;1.00;;;27.10;33.70;;;;;;5117604;28;20031;-40
2022/06/13 12:53:11;;;;;;;4.07;1.00;;;27.10;33.90;;;;;;5119025;28;20172;-51
2022/06/13 12:55:58;;;;;;;3.70;0.80;;;27.00;33.80;;;;;;5118642;28;20039;-47
2022/06/13 12:58:53;;;;;;;5.78;1.00;;;27.00;33.90;;;;;;5119129;28;20019;-47
2022/06/13 13:01:25;;;;;;;5.90;1.02;;;26.90;33.80;;;;;;5118971;28;20016;-51
2022/06/13 13:04:09;;;;;;;3.85;1.00;;;26.90;33.80;;;;;;5102092;28;20035;-52
2022/06/13 13:06:44;;;;;;;3.65;0.90;;;26.90;33.80;;;;;;5119951;28;20057;-46
2022/06/13 13:09:28;;;;;;;7.07;1.13;;;26.90;33.80;;;;;;5119672;28;20060;-52
2022/06/13 13:12:23;;;;;;;6.05;1.15;;;26.90;33.80;;;;;;5118713;28;20094;-48
2022/06/13 13:15:10;;;;;;;3.97;0.90;;;26.90;33.80;;;;;;5117105;28;20068;-50
2022/06/13 13:17:51;;;;;;;6.68;1.00;;;26.90;33.80;;;;;;5117807;28;20091;-48
2022/06/13 13:20:27;;;;;;;6.05;1.25;;;26.90;33.80;;;;;;5117810;28;20062;-45
2022/06/13 13:23:17;;;;;;;5.43;1.60;;;26.80;33.80;;;;;;5116543;28;20036;-47
2022/06/13 13:25:57;;;;;;;5.10;1.00;;;26.80;33.80;;;;;;5103048;28;20095;-45
2022/06/13 13:28:37;;;;;;;6.75;1.73;;;26.80;33.70;;;;;;5118695;28;20033;-50
2022/06/13 13:31:13;;;;;;;5.68;1.48;;;26.80;33.70;;;;;;5100386;28;20485;-50
2022/06/13 13:33:46;;;;;;;5.47;1.10;;;26.80;33.60;;;;;;5118255;28;20058;-54
2022/06/13 13:36:51;;;;;;;3.55;1.02;;;26.80;33.60;;;;;;5119128;28;20107;-53
2022/06/13 13:39:19;;;;;;;5.80;1.13;;;26.80;33.50;;;;;;5118566;28;20015;-52
2022/06/13 13:41:53;;;;;;;2.42;0.80;;;26.80;33.50;;;;;;5120990;28;20016;-48
2022/06/13 13:44:34;;;;;;;7.00;1.70;;;26.80;33.50;;;;;;5121374;28;20008;-53